createdAt,value
2023-04-10T00:03:30.093Z,101232.28
2023-04-10T00:08:32.537Z,101221.72
2023-04-10T00:13:34.753Z,101219.34
2023-04-10T00:18:36.923Z,101213.91
2023-04-10T00:23:39.124Z,101206.41
2023-04-10T00:28:41.420Z,101202.31
2023-04-10T00:33:43.582Z,101188.69
2023-04-10T00:38:45.712Z,101204.44
2023-04-10T00:43:47.861Z,101194.75
2023-04-10T00:48:52.592Z,101183.19
2023-04-10T00:53:55.183Z,101184.12
2023-04-10T00:58:57.673Z,101189.69
2023-04-10T01:04:00.569Z,101188.63
2023-04-10T01:09:10.816Z,101188.63
2023-04-10T01:14:42.791Z,101187.34
2023-04-10T01:20:19.444Z,101186.22
2023-04-10T01:25:41.361Z,101183.59
2023-04-10T01:30:45.019Z,101181.56
2023-04-10T01:35:53.466Z,101191.25
2023-04-10T01:40:57.362Z,101180.72
2023-04-10T01:46:02.200Z,101177.22
2023-04-10T01:51:07.076Z,101170.66
2023-04-10T01:56:09.645Z,101173.09
2023-04-10T02:01:22.440Z,101175.53
2023-04-10T02:06:57.575Z,101186.06
2023-04-10T02:12:06.005Z,101180.50
2023-04-10T02:17:11.451Z,101173.47
2023-04-10T02:22:14.079Z,101181.88
2023-04-10T02:27:16.612Z,101190.06
2023-04-10T02:32:19.263Z,101188.81
2023-04-10T02:37:22.880Z,101180.16
2023-04-10T02:42:25.109Z,101169.66
2023-04-10T02:47:27.282Z,101170.53
2023-04-10T02:52:29.470Z,101157.97
2023-04-10T02:57:31.834Z,101167.81
2023-04-10T03:02:34.122Z,101160.16
2023-04-10T03:07:36.620Z,101158.94
2023-04-10T03:12:38.801Z,101162.50
2023-04-10T03:17:41.161Z,101149.75
2023-04-10T03:22:43.401Z,101159.37
2023-04-10T03:27:45.874Z,101154.78
2023-04-10T03:32:48.065Z,101166.28
2023-04-10T03:37:50.354Z,101173.75
2023-04-10T03:42:52.466Z,101163.81
2023-04-10T03:47:54.738Z,101162.34
2023-04-10T03:52:56.994Z,101167.78
2023-04-10T03:57:59.157Z,101164.91
2023-04-10T04:03:03.283Z,101168.25
2023-04-10T04:08:06.911Z,101173.28
2023-04-10T04:13:09.108Z,101183.50
2023-04-10T04:18:11.268Z,101184.16
2023-04-10T04:23:13.434Z,101183.50
2023-04-10T04:28:16.226Z,101186.03
2023-04-10T04:33:18.488Z,101183.94
2023-04-10T04:38:21.130Z,101187.06
2023-04-10T04:43:23.241Z,101191.06
2023-04-10T04:48:25.554Z,101195.41
2023-04-10T04:53:27.847Z,101202.13
2023-04-10T04:58:30.629Z,101208.59
2023-04-10T05:03:33.146Z,101215.72
2023-04-10T05:08:35.610Z,101213.78
2023-04-10T05:13:37.756Z,101222.56
2023-04-10T05:18:39.962Z,101220.22
2023-04-10T05:23:42.136Z,101227.75
2023-04-10T05:28:44.333Z,101222.88
2023-04-10T05:33:46.526Z,101222.12
2023-04-10T05:38:48.707Z,101231.44
2023-04-10T05:43:51.102Z,101227.38
2023-04-10T05:48:53.890Z,101221.22
2023-04-10T05:53:56.259Z,101229.91
2023-04-10T05:58:58.353Z,101226.59
2023-04-10T06:04:00.790Z,101219.81
2023-04-10T06:09:03.704Z,101217.44
2023-04-10T06:14:06.214Z,101219.25
2023-04-10T06:19:08.417Z,101223.53
2023-04-10T06:24:12.777Z,101226.37
2023-04-10T06:29:15.544Z,101224.94
2023-04-10T06:34:17.688Z,101227.69
2023-04-10T06:39:19.845Z,101222.50
2023-04-10T06:44:22.041Z,101221.69
2023-04-10T06:49:24.469Z,101229.47
2023-04-10T06:54:26.643Z,101232.31
2023-04-10T06:59:29.204Z,101211.69
2023-04-10T07:04:32.356Z,101207.03
2023-04-10T07:09:35.413Z,101207.88
2023-04-10T07:14:41.693Z,101211.31
2023-04-10T07:19:47.687Z,101211.44
2023-04-10T07:24:50.902Z,101207.09
2023-04-10T07:29:58.290Z,101202.59
2023-04-10T07:35:01.040Z,101200.06
2023-04-10T07:40:03.715Z,101188.75
2023-04-10T07:45:06.648Z,101184.88
2023-04-10T07:50:09.306Z,101189.34
2023-04-10T07:55:11.454Z,101177.03
2023-04-10T08:00:14.096Z,101172.66
2023-04-10T08:05:16.370Z,101163.84
2023-04-10T08:10:18.683Z,101149.84
2023-04-10T08:15:21.070Z,101158.91
2023-04-10T08:20:23.562Z,101149.69
2023-04-10T08:25:25.773Z,101156.19
2023-04-10T08:30:27.949Z,101153.19
2023-04-10T08:35:31.355Z,101143.31
2023-04-10T08:40:37.446Z,101154.72
2023-04-10T08:45:41.365Z,101131.72
2023-04-10T08:50:45.910Z,101124.19
2023-04-10T08:55:48.190Z,101124.31
2023-04-10T09:00:51.622Z,101125.59
2023-04-10T09:05:54.694Z,101117.09
2023-04-10T09:10:57.703Z,101116.22
2023-04-10T09:16:00.608Z,101108.31
2023-04-10T09:21:14.993Z,101098.25
2023-04-10T09:27:06.097Z,101096.69
2023-04-10T09:32:12.491Z,101099.16
2023-04-10T09:37:18.778Z,101100.00
2023-04-10T09:42:34.818Z,101093.03
2023-04-10T09:47:39.955Z,101084.41
2023-04-10T09:52:42.262Z,101084.78
2023-04-10T09:57:53.529Z,101075.81
2023-04-10T10:02:58.318Z,101070.25
2023-04-10T10:08:01.333Z,101074.63
2023-04-10T10:13:04.849Z,101068.63
2023-04-10T10:18:17.850Z,101071.94
2023-04-10T10:23:20.656Z,101064.72
2023-04-10T10:28:25.276Z,101056.28
2023-04-10T10:33:30.675Z,101053.19
2023-04-10T10:38:33.685Z,101061.03
2023-04-10T10:43:51.069Z,101055.88
2023-04-10T10:49:00.565Z,101049.06
2023-04-10T10:54:02.785Z,101047.41
2023-04-10T10:59:05.043Z,101049.88
2023-04-10T11:04:46.435Z,101054.81
2023-04-10T11:09:51.911Z,101051.03
2023-04-10T11:15:02.525Z,101060.37
2023-04-10T11:20:05.793Z,101058.22
2023-04-10T11:25:10.544Z,101051.84
2023-04-10T11:30:34.434Z,101045.91
2023-04-10T11:35:36.831Z,101046.63
2023-04-10T11:40:56.274Z,101049.94
2023-04-10T11:46:07.993Z,101043.19
2023-04-10T11:51:18.632Z,101054.81
2023-04-10T11:56:22.590Z,101055.22
2023-04-10T12:01:31.725Z,101047.59
2023-04-10T12:06:37.603Z,101045.66
2023-04-10T12:11:49.404Z,101032.66
2023-04-10T12:16:52.852Z,101030.09
2023-04-10T12:21:56.480Z,101029.44
2023-04-10T12:26:59.691Z,101023.47
2023-04-10T12:32:09.715Z,101011.75
2023-04-10T12:37:11.912Z,100987.75
2023-04-10T12:42:22.847Z,100981.72
2023-04-10T12:47:27.082Z,100962.75
2023-04-10T12:52:29.335Z,100950.41
2023-04-10T12:57:31.910Z,100940.97
2023-04-10T13:02:34.390Z,100932.37
2023-04-10T13:07:37.481Z,100928.81
2023-04-10T13:12:40.742Z,100936.66
2023-04-10T13:17:43.029Z,100917.97
2023-04-10T13:22:45.511Z,100895.59
2023-04-10T13:27:47.788Z,100881.44
2023-04-10T13:32:50.036Z,100876.41
2023-04-10T13:37:54.262Z,100870.00
2023-04-10T13:42:56.505Z,100868.19
2023-04-10T13:47:58.871Z,100867.31
2023-04-10T13:53:01.144Z,100847.44
2023-04-10T13:58:03.510Z,100833.81
2023-04-10T14:03:06.135Z,100822.28
2023-04-10T14:08:11.769Z,100808.72
2023-04-10T14:13:14.026Z,100805.84
2023-04-10T14:18:18.381Z,100804.22
2023-04-10T14:23:22.467Z,100791.62
2023-04-10T14:28:24.712Z,100781.44
2023-04-10T14:33:27.078Z,100778.31
2023-04-10T14:38:29.287Z,100769.97
2023-04-10T14:43:31.585Z,100757.19
2023-04-10T14:48:33.978Z,100756.47
2023-04-10T14:53:36.287Z,100750.78
2023-04-10T14:58:47.201Z,100738.84
2023-04-10T15:03:49.401Z,100735.78
2023-04-10T15:08:51.622Z,100729.13
2023-04-10T15:13:54.080Z,100725.69
2023-04-10T15:18:56.591Z,100711.56
2023-04-10T15:23:58.825Z,100709.81
2023-04-10T15:29:00.987Z,100709.06
2023-04-10T15:34:03.230Z,100696.19
2023-04-10T15:39:06.061Z,100701.25
2023-04-10T15:44:08.233Z,100695.91
2023-04-10T15:49:10.436Z,100700.72
2023-04-10T15:54:12.657Z,100693.66
2023-04-10T15:59:14.786Z,100694.09
2023-04-10T16:04:17.079Z,100692.22
2023-04-10T16:14:24.365Z,100678.78
2023-04-10T16:19:30.299Z,100680.94
2023-04-10T16:24:32.638Z,100671.88
2023-04-10T16:29:35.363Z,100675.19
2023-04-10T16:34:37.534Z,100662.84
2023-04-10T16:39:40.002Z,100674.41
2023-04-10T16:44:42.203Z,100662.09
2023-04-10T16:49:45.875Z,100659.22
2023-04-10T16:54:48.045Z,100663.34
2023-04-10T16:59:50.411Z,100662.94
2023-04-10T17:04:56.368Z,100658.63
2023-04-10T17:09:59.269Z,100660.25
2023-04-10T17:15:01.493Z,100658.13
2023-04-10T17:20:03.854Z,100660.44
2023-04-10T17:25:07.014Z,100661.31
2023-04-10T17:30:13.329Z,100662.91
2023-04-10T17:35:15.731Z,100661.72
2023-04-10T17:40:18.144Z,100672.34
2023-04-10T17:45:20.515Z,100670.56
2023-04-10T17:50:22.717Z,100680.69
2023-04-10T17:55:25.000Z,100689.88
2023-04-10T18:00:27.164Z,100680.97
2023-04-10T18:05:34.601Z,100684.87
2023-04-10T18:10:37.926Z,100689.13
2023-04-10T18:15:40.386Z,100691.41
2023-04-10T18:20:42.514Z,100700.38
2023-04-10T18:25:55.292Z,100700.91
2023-04-10T18:30:58.402Z,100706.22
2023-04-10T18:36:00.768Z,100706.97
2023-04-10T18:41:02.918Z,100701.25
2023-04-10T18:46:06.206Z,100712.97
2023-04-10T18:51:12.686Z,100730.44
2023-04-10T18:56:14.805Z,100722.91
2023-04-10T19:01:17.964Z,100729.16
2023-04-10T19:06:24.122Z,100740.38
2023-04-10T19:11:26.380Z,100747.62
2023-04-10T19:16:28.681Z,100737.81
2023-04-10T19:21:31.787Z,100724.25
2023-04-10T19:26:34.407Z,100727.53
2023-04-10T19:31:36.611Z,100729.56
2023-04-10T19:36:38.831Z,100726.56
2023-04-10T19:41:42.421Z,100726.81
2023-04-10T19:46:44.915Z,100733.72
2023-04-10T19:51:47.107Z,100721.63
2023-04-10T19:56:49.338Z,100711.97
2023-04-10T20:01:51.562Z,100716.69
2023-04-10T20:06:54.920Z,100713.94
2023-04-10T20:12:00.742Z,100707.31
2023-04-10T20:17:03.524Z,100712.00
2023-04-10T20:22:07.365Z,100716.69
2023-04-10T20:27:09.572Z,100706.53
2023-04-10T20:32:12.015Z,100708.72
2023-04-10T20:37:18.716Z,100705.97
2023-04-10T20:42:23.437Z,100688.88
2023-04-10T20:47:25.715Z,100684.37
2023-04-10T20:52:27.919Z,100691.91
2023-04-10T20:57:30.426Z,100689.53
2023-04-10T21:02:32.695Z,100696.56
2023-04-10T21:12:37.213Z,100697.19
2023-04-10T21:17:39.387Z,100688.59
2023-04-10T21:22:41.516Z,100689.31
2023-04-10T21:27:43.738Z,100694.94
2023-04-10T21:32:45.987Z,100680.59
2023-04-10T21:37:48.285Z,100683.00
2023-04-10T21:42:50.510Z,100689.19
2023-04-10T21:47:52.959Z,100680.16
2023-04-10T21:52:55.503Z,100672.13
2023-04-10T21:57:58.060Z,100675.59
2023-04-10T22:03:00.498Z,100670.38
2023-04-10T22:08:02.766Z,100665.09
2023-04-10T22:13:04.926Z,100643.00
2023-04-10T22:18:07.195Z,100666.84
2023-04-10T22:23:09.661Z,100655.78
2023-04-10T22:28:11.839Z,100658.16
2023-04-10T22:33:14.020Z,100660.00
2023-04-10T22:38:17.317Z,100644.91
2023-04-10T22:43:19.451Z,100645.34
2023-04-10T22:48:21.799Z,100643.59
2023-04-10T22:53:24.241Z,100646.75
2023-04-10T22:58:26.397Z,100641.81
2023-04-10T23:03:28.591Z,100653.09
2023-04-10T23:08:30.795Z,100645.91
2023-04-10T23:13:35.047Z,100634.97
2023-04-10T23:18:37.665Z,100630.69
2023-04-10T23:23:39.942Z,100628.78
2023-04-10T23:28:42.167Z,100635.56
2023-04-10T23:33:44.321Z,100629.94
2023-04-10T23:38:46.504Z,100622.09
2023-04-10T23:43:48.699Z,100618.75
2023-04-10T23:48:51.178Z,100619.13
2023-04-10T23:53:53.511Z,100610.22
2023-04-10T23:58:56.477Z,100607.41
